METAR Data
IDs: Format: Raw Decoded Include TAF

Data at: 1218 UTC 09 Dec 2019

METAR for:KHCR (Heber City Muni, UT, US)
Text:KHCR 091215Z AUTO 12004KT 5SM BR BKN005 BKN009 OVC055 00/00 A3001 RMK AO2
Temperature: 0.0°C ( 32°F)
Dewpoint: 0.0°C ( 32°F) [RH = 100%]
Pressure (altimeter):30.01 inches Hg (1016.3 mb)
Winds:from the ESE (120 degrees) at 5 MPH (4 knots; 2.1 m/s)
Visibility: 5 sm ( 8 km)
Ceiling:500 feet AGL
Clouds: broken clouds at 500 feet AGL, broken clouds at 900 feet AGL, overcast cloud deck at 5500 feet AGL
Weather:BR (mist)
QC Flag:automated observation with no human augmentation